Time;durP1;ratioP1;P1;durP2;ratioP2;P2;SDS_P1;SDS_P2;PMS_P1;PMS_P2;Temp;Humidity;BMP_temperature;BMP_pressure;BME280_temperature;BME280_humidity;BME280_pressure;Samples;Min_cycle;Max_cycle;Signal;HPM_P1;HPM_P2
2024/01/05 00:01:37;;;;;;;22.17;11.13;;;3.60;99.90;;;;;;6149461;23;20036;-76
2024/01/05 00:04:03;;;;;;;21.88;10.10;;;3.60;99.90;;;;;;6148594;23;20548;-75
2024/01/05 00:06:29;;;;;;;21.15;10.02;;;3.50;99.90;;;;;;6148569;23;20025;-75
2024/01/05 00:08:55;;;;;;;20.85;10.18;;;3.50;99.90;;;;;;6146875;23;20041;-73
2024/01/05 00:11:22;;;;;;;19.85;9.63;;;3.50;99.90;;;;;;6122437;23;20052;-76
2024/01/05 00:13:48;;;;;;;27.50;10.70;;;3.50;99.90;;;;;;6150309;23;20122;-72
2024/01/05 00:16:17;;;;;;;22.45;10.45;;;3.50;99.90;;;;;;6148534;23;20022;-72
2024/01/05 00:18:43;;;;;;;28.27;12.23;;;3.50;99.90;;;;;;6149305;23;20079;-72
2024/01/05 00:21:17;;;;;;;23.27;9.90;;;3.50;99.90;;;;;;6149036;23;20100;-74
2024/01/05 00:23:43;;;;;;;26.30;11.02;;;3.50;99.90;;;;;;6148652;23;20025;-72
2024/01/05 00:26:08;;;;;;;27.38;11.52;;;3.40;99.90;;;;;;6123515;23;20340;-72
2024/01/05 00:28:34;;;;;;;25.75;12.10;;;3.50;99.90;;;;;;6150574;23;20018;-74
2024/01/05 00:31:00;;;;;;;23.17;11.85;;;3.50;99.90;;;;;;6149665;23;20107;-74
2024/01/05 00:33:26;;;;;;;25.80;11.23;;;3.50;99.90;;;;;;6148780;23;20018;-75
2024/01/05 00:35:51;;;;;;;26.63;11.95;;;3.50;99.90;;;;;;6149334;23;20026;-73
2024/01/05 00:38:17;;;;;;;18.42;12.35;;;3.40;99.90;;;;;;6148899;23;20025;-74
2024/01/05 00:40:43;;;;;;;21.83;11.52;;;3.40;99.90;;;;;;6147921;23;20022;-74
2024/01/05 00:43:09;;;;;;;29.52;12.93;;;3.50;99.90;;;;;;6122521;23;20161;-73
2024/01/05 00:45:34;;;;;;;24.48;12.70;;;3.40;99.90;;;;;;6123193;23;20104;-74
2024/01/05 00:48:00;;;;;;;24.45;11.48;;;3.40;99.90;;;;;;6123482;23;20013;-74
2024/01/05 00:50:26;;;;;;;29.10;12.45;;;3.40;99.90;;;;;;6098725;23;20458;-74
2024/01/05 00:52:51;;;;;;;26.27;13.40;;;3.40;99.90;;;;;;6122971;23;20021;-74
2024/01/05 00:55:17;;;;;;;25.08;12.95;;;3.40;99.90;;;;;;6149332;23;20045;-74
2024/01/05 00:57:42;;;;;;;27.65;13.00;;;3.40;99.90;;;;;;6148610;23;20049;-73
2024/01/05 01:00:09;;;;;;;30.90;12.82;;;3.40;99.90;;;;;;6149136;23;20015;-73
2024/01/05 01:02:37;;;;;;;22.60;13.40;;;3.40;99.90;;;;;;6149367;23;20028;-73
2024/01/05 01:05:03;;;;;;;27.65;13.90;;;3.40;99.90;;;;;;6098575;23;20013;-73
2024/01/05 01:07:29;;;;;;;25.48;13.75;;;3.40;99.90;;;;;;6119173;23;20059;-74
2024/01/05 01:09:55;;;;;;;23.55;12.77;;;3.30;99.90;;;;;;6148540;23;20641;-76
2024/01/05 01:12:21;;;;;;;25.42;13.43;;;3.30;99.90;;;;;;6122432;23;20013;-75
2024/01/05 01:14:46;;;;;;;26.88;14.80;;;3.30;99.90;;;;;;6124097;23;20026;-75
2024/01/05 01:17:12;;;;;;;27.95;14.00;;;3.30;99.90;;;;;;6124354;23;20022;-74
2024/01/05 01:19:38;;;;;;;30.02;15.27;;;3.30;99.90;;;;;;6122515;23;20021;-73
2024/01/05 01:22:03;;;;;;;24.52;12.82;;;3.30;99.90;;;;;;6149267;23;20021;-73
2024/01/05 01:24:29;;;;;;;25.48;13.70;;;3.30;99.90;;;;;;6149231;23;20025;-74
2024/01/05 01:26:55;;;;;;;24.13;13.43;;;3.30;99.90;;;;;;6147791;23;20025;-75
2024/01/05 01:29:20;;;;;;;26.75;13.75;;;3.30;99.90;;;;;;6123066;23;20072;-74
2024/01/05 01:31:46;;;;;;;25.08;12.90;;;3.30;99.90;;;;;;6122344;23;20029;-73
2024/01/05 01:34:12;;;;;;;26.80;13.52;;;3.30;99.90;;;;;;6148852;23;20527;-74
2024/01/05 01:36:37;;;;;;;27.17;12.77;;;3.30;99.90;;;;;;6148491;23;20350;-75
2024/01/05 01:39:04;;;;;;;25.77;14.30;;;3.30;99.90;;;;;;6148586;23;20706;-74
2024/01/05 01:41:30;;;;;;;23.85;12.63;;;3.30;99.90;;;;;;6147972;23;20021;-74
2024/01/05 01:43:56;;;;;;;34.45;13.95;;;3.30;99.90;;;;;;6121896;23;20025;-74
2024/01/05 01:46:23;;;;;;;28.92;12.27;;;3.20;99.90;;;;;;6122415;23;20457;-76
2024/01/05 01:48:50;;;;;;;23.27;12.77;;;3.30;99.90;;;;;;6148038;23;20025;-74
2024/01/05 01:51:16;;;;;;;28.38;14.02;;;3.30;99.90;;;;;;6149075;23;20350;-76
2024/01/05 01:53:43;;;;;;;28.10;14.57;;;3.30;99.90;;;;;;6148615;23;20026;-74
2024/01/05 01:56:10;;;;;;;22.42;12.80;;;3.30;99.90;;;;;;6148084;23;20021;-77
2024/01/05 01:58:40;;;;;;;27.52;14.60;;;3.30;99.90;;;;;;6149069;23;20496;-78
2024/01/05 02:01:06;;;;;;;26.92;14.13;;;3.30;99.90;;;;;;6149468;23;20013;-75
2024/01/05 02:03:32;;;;;;;23.95;13.57;;;3.20;99.90;;;;;;6121628;23;20484;-74
2024/01/05 02:05:59;;;;;;;26.83;13.32;;;3.20;99.90;;;;;;6148321;23;20022;-73
2024/01/05 02:08:25;;;;;;;27.48;14.82;;;3.20;99.90;;;;;;6145395;23;20112;-76
2024/01/05 02:10:50;;;;;;;21.45;11.45;;;3.20;99.90;;;;;;6147430;23;20018;-77
2024/01/05 02:13:16;;;;;;;32.47;14.30;;;3.20;99.90;;;;;;6123000;23;20073;-77
2024/01/05 02:15:42;;;;;;;27.40;14.60;;;3.20;99.90;;;;;;6147304;23;20018;-75
2024/01/05 02:18:12;;;;;;;28.17;14.77;;;3.20;99.90;;;;;;6149689;23;20506;-76
2024/01/05 02:20:37;;;;;;;28.23;13.98;;;3.20;99.90;;;;;;6150287;23;20021;-76
2024/01/05 02:23:07;;;;;;;30.42;15.73;;;3.20;99.90;;;;;;6123127;23;20025;-76
2024/01/05 02:25:33;;;;;;;28.80;14.85;;;3.20;99.90;;;;;;6149513;23;20462;-76
2024/01/05 02:27:59;;;;;;;30.38;14.85;;;3.20;99.90;;;;;;6149545;23;20029;-77
2024/01/05 02:30:24;;;;;;;32.67;15.93;;;3.20;99.90;;;;;;6150306;23;20018;-77
2024/01/05 02:32:50;;;;;;;30.52;15.77;;;3.20;99.90;;;;;;6150268;23;20538;-77
2024/01/05 02:35:16;;;;;;;29.65;14.95;;;3.20;99.90;;;;;;6149953;23;20089;-75
2024/01/05 02:37:43;;;;;;;27.85;15.73;;;3.20;99.90;;;;;;6149794;23;20072;-76
2024/01/05 02:40:11;;;;;;;31.70;15.13;;;3.20;99.90;;;;;;6150670;23;20018;-75
2024/01/05 02:42:37;;;;;;;25.88;15.13;;;3.20;99.90;;;;;;6150262;23;20029;-73
2024/01/05 02:45:03;;;;;;;32.08;16.50;;;3.20;99.90;;;;;;6150795;23;20063;-74
2024/01/05 02:47:28;;;;;;;23.55;13.32;;;3.20;99.90;;;;;;6150852;23;20021;-73
2024/01/05 02:49:54;;;;;;;24.48;13.68;;;3.20;99.90;;;;;;6150636;23;20426;-74
2024/01/05 02:52:19;;;;;;;31.88;14.73;;;3.20;99.90;;;;;;6148358;23;20022;-76
2024/01/05 02:54:45;;;;;;;28.13;14.43;;;3.20;99.90;;;;;;6150414;23;20032;-75
2024/01/05 02:57:11;;;;;;;24.80;13.25;;;3.10;99.90;;;;;;6150844;23;20021;-77
2024/01/05 02:59:36;;;;;;;27.52;13.13;;;3.10;99.90;;;;;;6124554;23;20018;-77
2024/01/05 03:02:02;;;;;;;28.27;14.40;;;3.20;99.90;;;;;;6099429;23;20100;-75
2024/01/05 03:04:28;;;;;;;24.92;12.27;;;3.10;99.90;;;;;;6125317;23;20014;-77
2024/01/05 03:06:53;;;;;;;25.38;12.55;;;3.10;99.90;;;;;;6123793;23;20017;-75
2024/01/05 03:09:19;;;;;;;21.17;11.75;;;3.10;99.90;;;;;;6151755;23;20096;-76
2024/01/05 03:11:44;;;;;;;26.73;12.68;;;3.10;99.90;;;;;;6151348;23;20468;-75
2024/01/05 03:14:10;;;;;;;25.48;11.23;;;3.10;99.90;;;;;;6125576;23;20021;-76
2024/01/05 03:16:36;;;;;;;25.02;11.60;;;3.10;99.90;;;;;;6125826;23;20014;-76
2024/01/05 03:19:02;;;;;;;26.33;11.88;;;3.10;99.90;;;;;;6126176;23;20111;-74
2024/01/05 03:21:27;;;;;;;28.50;11.73;;;3.10;99.90;;;;;;6152099;23;20017;-75
2024/01/05 03:23:53;;;;;;;24.40;11.52;;;3.10;99.90;;;;;;6152450;23;20400;-78
2024/01/05 03:26:19;;;;;;;24.08;12.15;;;3.10;99.90;;;;;;6151489;23;20065;-72
2024/01/05 03:28:44;;;;;;;20.85;10.02;;;3.10;99.90;;;;;;6126089;23;20075;-74
2024/01/05 03:31:13;;;;;;;20.73;11.10;;;3.10;99.90;;;;;;6151838;23;20354;-74
2024/01/05 03:33:40;;;;;;;27.45;12.57;;;3.10;99.90;;;;;;6152301;23;20076;-73
2024/01/05 03:36:06;;;;;;;25.20;12.00;;;3.10;99.90;;;;;;6151521;23;20017;-74
2024/01/05 03:38:32;;;;;;;24.27;11.52;;;3.10;99.90;;;;;;6152509;23;20025;-72
2024/01/05 03:40:58;;;;;;;24.88;11.88;;;3.10;99.90;;;;;;6150952;23;20022;-73
2024/01/05 03:43:24;;;;;;;24.65;12.18;;;3.10;99.90;;;;;;6152466;23;20501;-73
2024/01/05 03:45:49;;;;;;;22.95;11.05;;;3.10;99.90;;;;;;6125437;23;20489;-73
2024/01/05 03:48:15;;;;;;;28.30;13.05;;;3.10;99.90;;;;;;6124848;23;20025;-74
2024/01/05 03:50:41;;;;;;;23.92;11.95;;;3.10;99.90;;;;;;6125712;23;20022;-73
2024/01/05 03:53:06;;;;;;;22.58;11.65;;;3.10;99.90;;;;;;6151993;23;20021;-72
2024/01/05 03:55:32;;;;;;;23.92;11.45;;;3.10;99.90;;;;;;6125627;23;20056;-72
2024/01/05 03:57:58;;;;;;;21.05;10.00;;;3.10;99.90;;;;;;6151877;23;20029;-73
2024/01/05 04:00:23;;;;;;;23.02;10.73;;;3.10;99.90;;;;;;6151593;23;20018;-74
2024/01/05 04:02:49;;;;;;;21.63;10.73;;;3.10;99.90;;;;;;6125432;23;20117;-74
2024/01/05 04:05:15;;;;;;;20.35;10.90;;;3.10;99.90;;;;;;6124541;23;20009;-74
2024/01/05 04:07:40;;;;;;;19.58;11.52;;;3.10;99.90;;;;;;6148758;23;20517;-73
2024/01/05 04:10:07;;;;;;;17.25;9.73;;;3.10;99.90;;;;;;6152152;23;20045;-73
2024/01/05 04:12:32;;;;;;;20.83;10.05;;;3.10;99.90;;;;;;6151545;23;20072;-73
2024/01/05 04:14:58;;;;;;;15.88;9.75;;;3.10;99.90;;;;;;6150672;23;20029;-73
2024/01/05 04:17:24;;;;;;;20.80;11.18;;;3.10;99.90;;;;;;6151395;23;20025;-73
2024/01/05 04:19:50;;;;;;;15.55;8.52;;;3.10;99.90;;;;;;6152226;23;20017;-73
2024/01/05 04:22:15;;;;;;;20.73;10.48;;;3.10;99.90;;;;;;6151535;23;20017;-72
2024/01/05 04:24:41;;;;;;;19.90;10.70;;;3.10;99.90;;;;;;6125372;23;20018;-73
2024/01/05 04:27:07;;;;;;;19.30;9.57;;;3.10;99.90;;;;;;6150331;23;20021;-74
2024/01/05 04:29:32;;;;;;;20.13;10.48;;;3.10;99.90;;;;;;6152147;23;20088;-74
2024/01/05 04:31:58;;;;;;;21.63;9.98;;;3.10;99.90;;;;;;6151864;23;20429;-72
2024/01/05 04:34:24;;;;;;;20.35;10.48;;;3.10;99.90;;;;;;6151628;23;20373;-73
2024/01/05 04:36:49;;;;;;;20.48;9.85;;;3.10;99.90;;;;;;6151138;23;20499;-74
2024/01/05 04:39:16;;;;;;;22.92;11.77;;;3.20;99.90;;;;;;6125454;23;20010;-71
2024/01/05 04:41:43;;;;;;;17.83;9.35;;;3.10;99.90;;;;;;6151005;23;20100;-73
2024/01/05 04:44:08;;;;;;;23.75;11.80;;;3.20;99.90;;;;;;6151189;23;20059;-73
2024/01/05 04:46:34;;;;;;;20.88;11.65;;;3.10;99.90;;;;;;6151955;23;20579;-73
2024/01/05 04:49:00;;;;;;;23.63;10.13;;;3.10;99.90;;;;;;6149860;23;20013;-73
2024/01/05 04:51:25;;;;;;;23.30;11.75;;;3.20;99.90;;;;;;6100796;23;20068;-72
2024/01/05 04:53:51;;;;;;;20.52;9.75;;;3.20;99.90;;;;;;6151090;23;20243;-72
2024/01/05 04:56:17;;;;;;;21.95;11.30;;;3.10;99.90;;;;;;6151266;23;20045;-74
2024/01/05 04:58:43;;;;;;;19.65;10.77;;;3.20;99.90;;;;;;6124376;23;20021;-72
2024/01/05 05:01:08;;;;;;;20.08;10.32;;;3.20;99.90;;;;;;6124030;23;20104;-72
2024/01/05 05:03:35;;;;;;;19.25;10.65;;;3.20;99.90;;;;;;6150269;23;20056;-72
2024/01/05 05:06:01;;;;;;;23.13;11.25;;;3.20;99.90;;;;;;6124108;23;20053;-72
2024/01/05 05:08:27;;;;;;;18.75;10.05;;;3.20;99.90;;;;;;6148440;23;20021;-73
2024/01/05 05:10:53;;;;;;;22.10;11.00;;;3.20;99.90;;;;;;6149751;23;20108;-72
2024/01/05 05:13:18;;;;;;;23.38;11.40;;;3.20;99.90;;;;;;6150873;23;20103;-73
2024/01/05 05:15:44;;;;;;;19.55;11.18;;;3.20;99.90;;;;;;6151847;23;20009;-72
2024/01/05 05:18:10;;;;;;;19.25;11.38;;;3.30;99.90;;;;;;6151080;23;20338;-72
2024/01/05 05:20:35;;;;;;;18.63;10.40;;;3.30;99.90;;;;;;6150014;23;20014;-73
2024/01/05 05:23:01;;;;;;;21.25;10.05;;;3.30;99.90;;;;;;6150709;23;20018;-73
2024/01/05 05:25:27;;;;;;;20.48;11.73;;;3.30;99.90;;;;;;6151505;23;20027;-72
2024/01/05 05:27:53;;;;;;;22.25;11.07;;;3.30;99.90;;;;;;6150662;23;20017;-73
2024/01/05 05:30:18;;;;;;;22.15;12.02;;;3.30;99.90;;;;;;6150346;23;20474;-73
2024/01/05 05:32:44;;;;;;;23.08;11.82;;;3.30;99.90;;;;;;6124665;23;20017;-72
2024/01/05 05:35:10;;;;;;;22.90;11.30;;;3.40;99.90;;;;;;6124550;23;20061;-72
2024/01/05 05:37:36;;;;;;;22.20;12.05;;;3.30;99.90;;;;;;6124907;23;20020;-73
2024/01/05 05:40:02;;;;;;;22.08;12.30;;;3.30;99.90;;;;;;6124418;23;20053;-73
2024/01/05 05:42:27;;;;;;;24.15;11.77;;;3.30;99.90;;;;;;6124089;23;20036;-74
2024/01/05 05:44:53;;;;;;;23.60;11.52;;;3.40;99.90;;;;;;6100277;23;20025;-74
2024/01/05 05:47:19;;;;;;;20.17;10.65;;;3.30;99.90;;;;;;6124502;23;20017;-73
2024/01/05 05:49:44;;;;;;;21.67;11.18;;;3.30;99.90;;;;;;6124711;23;20096;-74
2024/01/05 05:52:10;;;;;;;21.13;11.00;;;3.30;99.90;;;;;;6151079;23;20053;-75
2024/01/05 05:54:36;;;;;;;24.35;11.13;;;3.30;99.90;;;;;;6151396;23;20331;-74
2024/01/05 05:57:02;;;;;;;23.00;12.40;;;3.30;99.90;;;;;;6150427;23;20468;-73
2024/01/05 05:59:29;;;;;;;24.48;12.07;;;3.40;99.90;;;;;;6150531;23;20493;-75
2024/01/05 06:01:55;;;;;;;28.67;14.60;;;3.30;99.90;;;;;;6150547;23;20060;-74
2024/01/05 06:04:21;;;;;;;27.33;13.65;;;3.30;99.90;;;;;;6151666;23;20322;-74
2024/01/05 06:06:46;;;;;;;28.35;13.70;;;3.30;99.90;;;;;;6147322;23;20108;-74
2024/01/05 06:09:14;;;;;;;29.30;13.68;;;3.30;99.90;;;;;;6150705;23;20032;-74
2024/01/05 06:11:40;;;;;;;24.08;12.32;;;3.30;99.90;;;;;;6150586;23;20089;-74
2024/01/05 06:14:06;;;;;;;28.75;12.52;;;3.40;99.90;;;;;;6150760;23;20107;-74
2024/01/05 06:16:31;;;;;;;24.70;12.65;;;3.30;99.90;;;;;;6150326;23;20036;-75
2024/01/05 06:18:57;;;;;;;26.58;13.93;;;3.40;99.90;;;;;;6150784;23;20017;-75
2024/01/05 06:21:23;;;;;;;32.45;13.95;;;3.40;99.90;;;;;;6150433;23;20096;-75
2024/01/05 06:23:49;;;;;;;27.40;13.23;;;3.40;99.90;;;;;;6124409;23;20052;-76
2024/01/05 06:26:15;;;;;;;32.60;14.93;;;3.40;99.90;;;;;;6150471;23;20445;-75
2024/01/05 06:28:40;;;;;;;32.47;15.00;;;3.40;99.90;;;;;;6125641;23;20478;-78
2024/01/05 06:31:06;;;;;;;33.88;13.68;;;3.40;99.90;;;;;;6125396;23;20357;-79
2024/01/05 06:33:32;;;;;;;28.83;14.63;;;3.40;99.90;;;;;;6101377;23;20493;-75
2024/01/05 06:35:57;;;;;;;34.63;14.65;;;3.40;99.90;;;;;;6125069;23;20025;-76
2024/01/05 06:38:23;;;;;;;25.10;13.15;;;3.40;99.90;;;;;;6125266;23;20017;-75
2024/01/05 06:40:49;;;;;;;24.45;13.80;;;3.40;99.90;;;;;;6101936;23;20044;-78
2024/01/05 06:43:14;;;;;;;29.38;12.50;;;3.40;99.90;;;;;;6127028;23;20450;-77
2024/01/05 06:45:40;;;;;;;22.52;11.07;;;3.40;99.90;;;;;;6102331;23;20013;-78
2024/01/05 06:48:06;;;;;;;23.48;12.65;;;3.50;99.90;;;;;;6127591;23;20387;-75
2024/01/05 06:50:32;;;;;;;24.83;12.80;;;3.50;99.90;;;;;;6125998;23;20022;-75
2024/01/05 06:52:57;;;;;;;20.83;10.88;;;3.50;99.90;;;;;;6153051;23;20009;-76
2024/01/05 06:55:23;;;;;;;26.75;13.05;;;3.50;99.90;;;;;;6127753;23;20121;-73
2024/01/05 06:57:48;;;;;;;24.10;12.60;;;3.50;99.90;;;;;;6151109;23;20470;-74
2024/01/05 07:00:15;;;;;;;20.70;11.73;;;3.50;99.90;;;;;;6152148;23;20053;-74
2024/01/05 07:02:40;;;;;;;25.77;13.73;;;3.50;99.90;;;;;;6152513;23;20351;-72
2024/01/05 07:05:06;;;;;;;26.35;13.38;;;3.50;99.90;;;;;;6152331;23;20017;-73
2024/01/05 07:07:32;;;;;;;33.40;13.90;;;3.50;99.90;;;;;;6123045;23;20032;-72
2024/01/05 07:09:58;;;;;;;26.95;13.07;;;3.50;99.90;;;;;;6151171;23;20087;-72
2024/01/05 07:12:24;;;;;;;30.15;15.13;;;3.50;99.90;;;;;;6151817;23;20023;-73
2024/01/05 07:14:49;;;;;;;29.42;14.73;;;3.50;99.90;;;;;;6124978;23;20076;-73
2024/01/05 07:17:15;;;;;;;36.47;13.65;;;3.50;99.90;;;;;;6152126;23;20044;-74
2024/01/05 07:19:41;;;;;;;31.33;14.85;;;3.50;99.90;;;;;;6125484;23;20338;-72
2024/01/05 07:22:10;;;;;;;34.40;15.15;;;3.50;99.90;;;;;;6152158;23;20096;-72
2024/01/05 07:24:37;;;;;;;30.17;13.50;;;3.50;99.90;;;;;;6152470;23;20089;-73
2024/01/05 07:27:04;;;;;;;32.40;15.82;;;3.50;99.90;;;;;;6151916;23;20029;-72
2024/01/05 07:29:29;;;;;;;36.42;16.45;;;3.50;99.90;;;;;;6151626;23;20017;-73
2024/01/05 07:31:55;;;;;;;31.70;16.02;;;3.60;99.90;;;;;;6152211;23;20076;-73
2024/01/05 07:34:21;;;;;;;35.55;15.88;;;3.60;99.90;;;;;;6151948;23;20472;-72
2024/01/05 07:36:47;;;;;;;31.17;15.90;;;3.60;99.90;;;;;;6150173;23;20469;-73
2024/01/05 07:39:13;;;;;;;35.70;15.18;;;3.60;99.90;;;;;;6151495;23;20021;-73
2024/01/05 07:41:39;;;;;;;35.28;15.05;;;3.60;99.90;;;;;;6152293;23;20656;-74
2024/01/05 07:44:05;;;;;;;31.23;15.52;;;3.60;99.90;;;;;;6151762;23;20087;-71
2024/01/05 07:46:31;;;;;;;28.38;12.60;;;3.70;99.90;;;;;;6125811;23;20025;-71
2024/01/05 07:48:57;;;;;;;29.38;13.65;;;3.70;99.90;;;;;;6101375;23;20018;-72
2024/01/05 07:51:23;;;;;;;30.42;14.98;;;3.70;99.90;;;;;;6151469;23;20101;-73
2024/01/05 07:53:49;;;;;;;32.83;15.90;;;3.70;99.90;;;;;;6151644;23;20451;-73
2024/01/05 07:56:19;;;;;;;38.90;16.25;;;3.80;99.90;;;;;;6125177;23;20358;-73
2024/01/05 07:58:45;;;;;;;31.70;15.18;;;3.80;99.90;;;;;;6125735;23;20020;-73
2024/01/05 08:01:18;;;;;;;34.95;16.10;;;3.80;99.90;;;;;;6124965;23;20021;-72
2024/01/05 08:03:44;;;;;;;31.73;14.65;;;3.90;99.90;;;;;;6124364;23;20342;-72
2024/01/05 08:06:15;;;;;;;36.08;16.13;;;3.90;99.90;;;;;;6128127;23;20021;-72
2024/01/05 08:08:43;;;;;;;31.58;15.20;;;3.90;99.90;;;;;;6156809;23;20032;-72
2024/01/05 08:11:10;;;;;;;29.63;14.95;;;3.90;99.90;;;;;;6152958;23;20466;-68
2024/01/05 08:13:36;;;;;;;33.05;16.90;;;4.00;99.90;;;;;;6124395;23;20110;-71
2024/01/05 08:16:02;;;;;;;33.03;14.20;;;4.00;99.90;;;;;;6151356;23;20534;-71
2024/01/05 08:18:27;;;;;;;35.60;16.85;;;4.00;99.90;;;;;;6151497;23;20480;-72
2024/01/05 08:20:53;;;;;;;29.00;14.65;;;4.00;99.90;;;;;;6151629;23;20017;-72
2024/01/05 08:23:19;;;;;;;39.35;16.95;;;4.00;99.90;;;;;;6152278;23;20021;-73
2024/01/05 08:25:44;;;;;;;38.35;16.85;;;4.00;99.90;;;;;;6151859;23;20020;-73
2024/01/05 08:28:10;;;;;;;42.80;19.48;;;4.00;99.90;;;;;;6152058;23;20032;-74
2024/01/05 08:30:36;;;;;;;36.15;16.77;;;4.10;99.90;;;;;;6126253;23;20043;-72
2024/01/05 08:33:01;;;;;;;32.75;15.45;;;4.00;99.90;;;;;;6125983;23;20025;-73
2024/01/05 08:35:28;;;;;;;37.50;15.82;;;4.00;99.90;;;;;;6124574;23;20017;-72
2024/01/05 08:37:53;;;;;;;44.15;17.90;;;4.10;99.90;;;;;;6151386;23;20378;-72
2024/01/05 08:40:19;;;;;;;31.15;14.85;;;4.10;99.90;;;;;;6152561;23;20027;-72
2024/01/05 08:42:45;;;;;;;34.70;16.90;;;4.10;99.90;;;;;;6124231;23;20017;-73
2024/01/05 08:45:11;;;;;;;38.90;16.35;;;4.10;99.90;;;;;;6151207;23;20100;-73
2024/01/05 08:47:37;;;;;;;37.20;17.90;;;4.10;99.90;;;;;;6126360;23;20049;-72
2024/01/05 08:50:03;;;;;;;35.53;16.10;;;4.10;99.90;;;;;;6151408;23;20020;-72
2024/01/05 08:52:29;;;;;;;36.05;17.00;;;4.20;99.90;;;;;;6151382;23;20096;-73
2024/01/05 08:54:54;;;;;;;37.42;17.75;;;4.10;99.90;;;;;;6151673;23;20088;-73
2024/01/05 08:57:21;;;;;;;40.30;17.80;;;4.20;99.90;;;;;;6123643;23;20148;-73
2024/01/05 08:59:46;;;;;;;38.42;16.73;;;4.20;99.90;;;;;;6151527;23;20608;-73
2024/01/05 09:02:12;;;;;;;39.90;17.02;;;4.20;99.90;;;;;;6151096;23;20021;-73
2024/01/05 09:04:38;;;;;;;31.75;15.15;;;4.20;99.90;;;;;;6150495;23;20017;-73
2024/01/05 09:07:04;;;;;;;36.30;16.70;;;4.20;99.90;;;;;;6122170;23;20041;-73
2024/01/05 09:09:30;;;;;;;38.80;17.40;;;4.20;99.90;;;;;;6125891;23;20354;-70
2024/01/05 09:11:56;;;;;;;44.28;17.10;;;4.30;99.90;;;;;;6151774;23;20346;-72
2024/01/05 09:14:21;;;;;;;37.28;16.52;;;4.30;99.90;;;;;;6100245;23;20029;-73
2024/01/05 09:16:47;;;;;;;31.95;16.27;;;4.30;99.90;;;;;;6123195;23;20044;-73
2024/01/05 09:19:13;;;;;;;38.17;16.45;;;4.30;99.90;;;;;;6123714;23;20334;-73
2024/01/05 09:21:39;;;;;;;33.75;15.02;;;4.40;99.90;;;;;;6150577;23;20021;-73
2024/01/05 09:24:05;;;;;;;31.17;15.07;;;4.40;99.90;;;;;;6150373;23;20021;-73
2024/01/05 09:26:31;;;;;;;34.33;16.08;;;4.40;99.90;;;;;;6122202;23;20067;-72
2024/01/05 09:28:57;;;;;;;32.10;14.75;;;4.40;99.90;;;;;;6148830;23;20482;-73
2024/01/05 09:31:24;;;;;;;30.80;14.70;;;4.40;99.90;;;;;;6148931;23;20025;-72
2024/01/05 09:33:50;;;;;;;30.38;14.43;;;4.40;99.90;;;;;;6122191;23;20021;-73
2024/01/05 09:36:16;;;;;;;29.50;13.82;;;4.50;99.90;;;;;;6148206;23;20021;-72
2024/01/05 09:38:42;;;;;;;28.38;13.82;;;4.50;99.90;;;;;;6147830;23;20023;-73
2024/01/05 09:41:13;;;;;;;28.02;12.95;;;4.50;99.90;;;;;;6147735;23;20084;-73
2024/01/05 09:43:47;;;;;;;29.58;13.95;;;4.50;99.90;;;;;;6149831;23;20052;-73
2024/01/05 09:46:13;;;;;;;28.83;13.82;;;4.60;99.90;;;;;;6121999;23;20597;-72
2024/01/05 09:48:39;;;;;;;25.50;12.82;;;4.60;99.90;;;;;;6124365;23;20056;-73
2024/01/05 09:51:08;;;;;;;31.63;14.50;;;4.60;99.90;;;;;;6150910;23;20021;-74
2024/01/05 09:53:34;;;;;;;25.60;14.27;;;4.50;99.90;;;;;;6150850;23;20021;-72
2024/01/05 09:56:02;;;;;;;27.13;12.90;;;4.50;99.90;;;;;;6151165;23;20023;-73
2024/01/05 09:58:28;;;;;;;33.35;14.55;;;4.60;99.90;;;;;;6124781;23;20407;-73
2024/01/05 10:00:57;;;;;;;29.38;14.15;;;4.50;99.90;;;;;;6125219;23;20029;-72
2024/01/05 10:03:24;;;;;;;30.65;14.77;;;4.50;99.90;;;;;;6150682;23;20512;-72
2024/01/05 10:05:53;;;;;;;28.10;13.80;;;4.60;99.90;;;;;;6076258;23;20025;-72
2024/01/05 10:08:21;;;;;;;29.55;14.85;;;4.60;99.90;;;;;;6146884;23;20025;-72
2024/01/05 10:10:48;;;;;;;30.40;14.90;;;4.60;99.90;;;;;;6151468;23;20314;-71
2024/01/05 10:13:17;;;;;;;31.80;15.00;;;4.60;99.90;;;;;;6150880;23;20412;-73
2024/01/05 10:16:00;;;;;;;27.83;14.18;;;4.60;99.90;;;;;;6128131;23;20018;-73
2024/01/05 10:18:30;;;;;;;29.98;14.30;;;4.60;99.90;;;;;;6102871;23;20096;-73
2024/01/05 10:21:07;;;;;;;28.40;14.25;;;4.60;99.90;;;;;;6126735;23;20028;-74
2024/01/05 10:23:43;;;;;;;32.03;14.88;;;4.60;99.90;;;;;;6126869;23;20013;-75
2024/01/05 10:26:21;;;;;;;30.98;14.90;;;4.60;99.90;;;;;;6125948;23;20021;-76
2024/01/05 10:28:48;;;;;;;30.75;13.93;;;4.70;99.90;;;;;;6102860;23;20521;-73
2024/01/05 10:31:15;;;;;;;27.48;14.13;;;4.60;99.90;;;;;;6103580;23;20009;-73
2024/01/05 10:33:51;;;;;;;27.10;14.20;;;4.70;99.90;;;;;;6153323;23;20080;-69
2024/01/05 10:36:20;;;;;;;31.38;14.18;;;4.70;99.90;;;;;;6154240;23;20060;-71
2024/01/05 10:38:47;;;;;;;27.20;13.40;;;4.70;99.90;;;;;;6127573;23;20060;-70
2024/01/05 10:41:13;;;;;;;26.95;13.68;;;4.70;99.90;;;;;;6127838;23;20027;-71
2024/01/05 10:43:41;;;;;;;24.48;12.77;;;4.70;99.90;;;;;;6128490;23;20032;-71
2024/01/05 10:46:10;;;;;;;26.33;13.38;;;4.80;99.90;;;;;;6132008;23;20450;-78
2024/01/05 10:48:36;;;;;;;27.65;13.13;;;4.80;99.90;;;;;;6159525;23;20021;-76
2024/01/05 10:51:04;;;;;;;26.40;13.18;;;4.80;99.90;;;;;;6127046;23;20782;-76
2024/01/05 10:53:30;;;;;;;25.20;12.80;;;4.80;99.90;;;;;;6129144;23;20029;-75
2024/01/05 10:55:58;;;;;;;22.58;12.10;;;4.90;99.90;;;;;;6153089;23;20018;-76
2024/01/05 10:58:24;;;;;;;28.77;13.73;;;4.90;99.90;;;;;;6150657;23;20029;-75
2024/01/05 11:00:52;;;;;;;26.85;12.38;;;4.90;99.90;;;;;;6128469;23;20026;-75
2024/01/05 11:03:19;;;;;;;29.55;13.00;;;4.90;99.90;;;;;;6134187;23;20385;-75
2024/01/05 11:05:45;;;;;;;23.75;12.25;;;5.00;99.90;;;;;;6131010;23;20025;-76
2024/01/05 11:08:36;;;;;;;24.48;12.13;;;5.00;99.90;;;;;;6122556;23;20393;-78
2024/01/05 11:11:19;;;;;;;25.35;11.50;;;5.00;99.90;;;;;;6106670;23;20025;-75
2024/01/05 11:13:45;;;;;;;26.20;11.57;;;5.10;99.90;;;;;;6104817;23;20028;-76
2024/01/05 11:16:45;;;;;;;24.20;11.73;;;5.10;99.90;;;;;;6126021;23;20450;-74
2024/01/05 11:19:38;;;;;;;24.10;11.52;;;5.10;99.90;;;;;;6128469;23;20026;-77
2024/01/05 11:22:08;;;;;;;23.80;11.57;;;5.10;99.90;;;;;;6126269;23;20026;-78
2024/01/05 11:24:35;;;;;;;28.08;13.35;;;5.20;99.90;;;;;;6126622;23;20013;-78
2024/01/05 11:27:30;;;;;;;26.98;12.52;;;5.10;99.90;;;;;;6126333;23;20119;-77
2024/01/05 11:29:57;;;;;;;27.75;12.77;;;5.20;99.90;;;;;;6127153;23;20018;-77
2024/01/05 11:32:45;;;;;;;29.15;12.88;;;5.20;99.90;;;;;;6102425;23;20549;-77
2024/01/05 11:35:17;;;;;;;25.25;12.07;;;5.20;99.90;;;;;;6151931;23;20022;-77
2024/01/05 11:37:47;;;;;;;27.02;12.57;;;5.30;99.90;;;;;;6125790;23;20009;-76
2024/01/05 11:40:25;;;;;;;26.55;12.15;;;5.30;99.90;;;;;;6125815;23;20072;-76
2024/01/05 11:42:51;;;;;;;28.27;14.10;;;5.40;99.90;;;;;;6126344;23;20028;-77
2024/01/05 11:45:43;;;;;;;26.08;12.43;;;5.40;99.90;;;;;;6125575;23;20024;-76
2024/01/05 11:48:09;;;;;;;24.25;12.18;;;5.50;99.90;;;;;;6126594;23;20027;-77
2024/01/05 11:50:36;;;;;;;33.05;13.63;;;5.50;99.90;;;;;;6101562;23;20080;-76
2024/01/05 11:53:24;;;;;;;29.25;13.57;;;5.50;99.90;;;;;;6153520;23;20153;-77
2024/01/05 11:55:56;;;;;;;27.02;12.80;;;5.60;99.90;;;;;;6152002;23;20013;-79
2024/01/05 11:58:27;;;;;;;24.30;12.25;;;5.60;99.90;;;;;;6152733;23;20018;-79
2024/01/05 12:00:55;;;;;;;22.95;12.38;;;5.60;99.90;;;;;;6153389;23;20009;-80
2024/01/05 12:03:23;;;;;;;25.58;13.35;;;5.60;99.90;;;;;;6152076;23;20017;-79
2024/01/05 12:06:00;;;;;;;29.63;13.07;;;5.50;99.90;;;;;;6152326;23;20024;-80
2024/01/05 12:08:27;;;;;;;28.25;14.63;;;5.50;99.90;;;;;;6148603;23;20084;-80
2024/01/05 12:10:57;;;;;;;28.80;13.98;;;5.50;99.90;;;;;;6152689;23;20022;-79
2024/01/05 12:13:26;;;;;;;29.45;13.40;;;5.50;99.90;;;;;;6153102;23;20021;-79
2024/01/05 12:15:55;;;;;;;32.55;14.68;;;5.50;99.90;;;;;;6152425;23;20505;-79
2024/01/05 12:18:25;;;;;;;26.02;13.07;;;5.50;99.90;;;;;;6125336;23;20021;-79
2024/01/05 12:20:54;;;;;;;28.88;15.05;;;5.50;99.90;;;;;;6152525;23;20015;-79
2024/01/05 12:23:20;;;;;;;28.85;13.70;;;5.50;99.90;;;;;;6125783;23;20044;-76
2024/01/05 12:26:04;;;;;;;34.13;15.98;;;5.60;99.90;;;;;;6126546;23;20029;-79
2024/01/05 12:28:40;;;;;;;30.30;15.27;;;5.60;99.90;;;;;;6126800;23;20018;-79
2024/01/05 12:31:10;;;;;;;32.13;15.43;;;5.60;99.90;;;;;;6155290;23;20017;-82
2024/01/05 12:33:37;;;;;;;35.42;17.77;;;5.60;99.90;;;;;;6126057;23;20021;-81
2024/01/05 12:36:12;;;;;;;37.45;18.02;;;5.60;99.90;;;;;;6151874;23;20095;-80
2024/01/05 12:38:38;;;;;;;32.58;15.93;;;5.60;99.90;;;;;;6152309;23;20026;-79